createdAt,value
2019-05-09T00:00:33.384Z,10.60
2019-05-09T00:03:03.309Z,10.60
2019-05-09T00:05:30.349Z,10.50
2019-05-09T00:07:58.019Z,10.50
2019-05-09T00:10:38.351Z,10.50
2019-05-09T00:12:56.208Z,10.50
2019-05-09T00:15:24.956Z,10.40
2019-05-09T00:17:53.284Z,10.50
2019-05-09T00:20:35.325Z,10.40
2019-05-09T00:23:03.367Z,10.40
2019-05-09T00:25:31.125Z,10.40
2019-05-09T00:28:01.419Z,10.40
2019-05-09T00:30:48.690Z,10.30
2019-05-09T00:33:19.014Z,10.30
2019-05-09T00:35:46.661Z,10.30
2019-05-09T00:38:14.878Z,10.30
2019-05-09T00:40:57.783Z,10.20
2019-05-09T00:43:18.419Z,10.20
2019-05-09T00:46:05.679Z,10.20
2019-05-09T00:48:47.425Z,10.20
2019-05-09T00:51:15.280Z,10.10
2019-05-09T00:53:44.429Z,10.10
2019-05-09T00:56:13.443Z,10.10
2019-05-09T00:58:41.278Z,10.10
2019-05-09T01:01:08.980Z,10.10
2019-05-09T01:03:37.053Z,10.10
2019-05-09T01:06:04.800Z,10.10
2019-05-09T01:08:33.802Z,10.10
2019-05-09T01:11:09.339Z,10.10
2019-05-09T01:13:31.111Z,10.10
2019-05-09T01:15:58.820Z,10.00
2019-05-09T01:18:26.484Z,10.00
2019-05-09T01:20:54.165Z,10.00
2019-05-09T01:23:23.430Z,10.00
2019-05-09T01:25:52.966Z,9.90
2019-05-09T01:28:22.661Z,10.00
2019-05-09T01:30:50.327Z,10.00
2019-05-09T01:33:25.100Z,10.00
2019-05-09T01:35:54.063Z,10.00
2019-05-09T01:38:23.196Z,10.00
2019-05-09T01:40:53.171Z,9.90
2019-05-09T01:43:20.967Z,9.90
2019-05-09T01:45:48.597Z,9.90
2019-05-09T01:48:16.319Z,9.90
2019-05-09T01:50:44.295Z,9.90
2019-05-09T01:53:13.743Z,9.90
2019-05-09T01:56:00.125Z,9.80
2019-05-09T01:58:31.113Z,9.80
2019-05-09T02:00:59.664Z,9.80
2019-05-09T02:03:27.434Z,9.80
2019-05-09T02:05:55.163Z,9.70
2019-05-09T02:08:23.659Z,9.70
2019-05-09T02:10:51.618Z,9.70
2019-05-09T02:13:19.272Z,9.70
2019-05-09T02:16:04.810Z,9.70
2019-05-09T02:18:38.844Z,9.70
2019-05-09T02:21:06.760Z,9.70
2019-05-09T02:23:34.423Z,9.70
2019-05-09T02:26:03.996Z,9.70
2019-05-09T02:28:33.974Z,9.70
2019-05-09T02:31:05.075Z,9.70
2019-05-09T02:33:33.908Z,9.70
2019-05-09T02:36:01.931Z,9.80
2019-05-09T02:38:30.280Z,9.80
2019-05-09T02:40:59.550Z,9.80
2019-05-09T02:43:29.089Z,9.80
2019-05-09T02:46:09.720Z,9.80
2019-05-09T02:48:38.644Z,9.70
2019-05-09T02:51:09.229Z,9.70
2019-05-09T02:53:39.108Z,9.70
2019-05-09T02:56:08.941Z,9.80
2019-05-09T02:58:44.073Z,9.80
2019-05-09T03:01:41.007Z,9.90
2019-05-09T03:04:08.833Z,9.90
2019-05-09T03:06:38.969Z,9.90
2019-05-09T03:09:08.841Z,9.90
2019-05-09T03:11:38.811Z,9.90
2019-05-09T03:14:08.789Z,9.90
2019-05-09T03:16:35.510Z,9.90
2019-05-09T03:19:03.228Z,9.90
2019-05-09T03:21:39.086Z,10.00
2019-05-09T03:24:09.420Z,10.00
2019-05-09T03:26:38.675Z,10.00
2019-05-09T03:29:29.541Z,10.00
2019-05-09T03:32:00.002Z,10.10
2019-05-09T03:34:30.121Z,10.10
2019-05-09T03:36:58.122Z,10.10
2019-05-09T03:39:27.605Z,10.10
2019-05-09T03:41:57.393Z,10.10
2019-05-09T03:44:25.255Z,10.10
2019-05-09T03:47:09.322Z,10.00
2019-05-09T03:49:37.565Z,10.10
2019-05-09T03:52:07.377Z,10.10
2019-05-09T03:54:35.504Z,10.10
2019-05-09T03:57:17.986Z,10.10
2019-05-09T03:59:47.998Z,10.10
2019-05-09T04:02:17.676Z,10.10
2019-05-09T04:04:47.579Z,10.00
2019-05-09T04:07:15.401Z,10.00
2019-05-09T04:09:43.147Z,10.10
2019-05-09T04:12:10.840Z,10.10
2019-05-09T04:14:38.676Z,10.10
2019-05-09T04:17:07.833Z,10.10
2019-05-09T04:19:35.818Z,10.00
2019-05-09T04:22:03.644Z,10.00
2019-05-09T04:24:31.824Z,10.00
2019-05-09T04:27:09.787Z,10.00
2019-05-09T04:29:37.568Z,9.90
2019-05-09T04:32:05.195Z,10.00
2019-05-09T04:34:33.911Z,10.00
2019-05-09T04:37:01.703Z,9.90
2019-05-09T04:39:29.404Z,9.90
2019-05-09T04:42:03.725Z,9.90
2019-05-09T04:44:49.852Z,9.90
2019-05-09T04:47:17.361Z,9.90
2019-05-09T04:49:45.920Z,9.90
2019-05-09T04:52:15.060Z,9.90
2019-05-09T04:54:42.764Z,9.90
2019-05-09T04:57:10.512Z,10.00
2019-05-09T04:59:38.261Z,10.00
2019-05-09T05:02:27.449Z,10.10
2019-05-09T05:04:55.115Z,10.10
2019-05-09T05:07:22.717Z,10.10
2019-05-09T05:09:50.476Z,10.10
2019-05-09T05:12:18.702Z,10.20
2019-05-09T05:14:47.586Z,10.10
2019-05-09T05:17:18.025Z,10.10
2019-05-09T05:19:47.609Z,10.00
2019-05-09T05:22:28.330Z,10.00
2019-05-09T05:24:59.874Z,10.00
2019-05-09T05:27:27.980Z,10.10
2019-05-09T05:29:58.101Z,10.00
2019-05-09T05:32:31.408Z,10.00
2019-05-09T05:35:07.697Z,10.10
2019-05-09T05:37:35.487Z,10.10
2019-05-09T05:40:03.983Z,10.10
2019-05-09T05:42:31.880Z,10.20
2019-05-09T05:44:59.545Z,10.30
2019-05-09T05:47:37.966Z,10.50
2019-05-09T05:50:08.259Z,10.60
2019-05-09T05:52:37.539Z,10.80
2019-05-09T05:55:07.409Z,10.90
2019-05-09T05:57:35.055Z,11.00
2019-05-09T06:00:03.337Z,11.10
2019-05-09T06:02:31.188Z,11.20
2019-05-09T06:04:59.384Z,11.20
2019-05-09T06:07:28.461Z,11.30
2019-05-09T06:09:57.624Z,11.30
2019-05-09T06:12:27.674Z,11.30
2019-05-09T06:14:55.189Z,11.40
2019-05-09T06:17:22.883Z,11.30
2019-05-09T06:19:50.658Z,11.50
2019-05-09T06:22:18.532Z,11.50
2019-05-09T06:24:47.874Z,11.50
2019-05-09T06:27:18.084Z,11.40
2019-05-09T06:29:47.542Z,11.40
2019-05-09T06:32:14.983Z,11.40
2019-05-09T06:34:42.845Z,11.30
2019-05-09T06:37:10.699Z,11.40
2019-05-09T06:39:38.982Z,11.40
2019-05-09T06:42:09.039Z,11.50
2019-05-09T06:45:03.046Z,11.50
2019-05-09T06:47:38.078Z,11.60
2019-05-09T06:50:10.757Z,11.70
2019-05-09T06:52:38.445Z,11.70
2019-05-09T06:55:08.431Z,11.70
2019-05-09T06:57:40.081Z,11.60
2019-05-09T07:00:10.340Z,11.60
2019-05-09T07:02:47.893Z,11.50
2019-05-09T07:05:35.162Z,11.50
2019-05-09T07:08:10.342Z,11.50
2019-05-09T07:10:38.347Z,11.60
2019-05-09T07:13:07.954Z,11.70
2019-05-09T07:15:37.624Z,11.70
2019-05-09T07:18:05.377Z,11.60
2019-05-09T07:20:33.068Z,11.40
2019-05-09T07:23:00.750Z,11.30
2019-05-09T07:25:47.991Z,11.00
2019-05-09T07:28:17.841Z,10.80
2019-05-09T07:31:11.761Z,10.50
2019-05-09T07:33:58.800Z,10.30
2019-05-09T07:36:27.814Z,10.10
2019-05-09T07:38:58.080Z,10.00
2019-05-09T07:41:25.344Z,10.00
2019-05-09T07:43:52.931Z,10.00
2019-05-09T07:46:31.377Z,10.00
2019-05-09T07:49:00.667Z,10.10
2019-05-09T07:51:28.368Z,10.20
2019-05-09T07:53:59.327Z,10.40
2019-05-09T07:56:28.467Z,10.50
2019-05-09T07:58:58.407Z,10.60
2019-05-09T08:01:28.046Z,10.60
2019-05-09T08:03:58.153Z,10.60
2019-05-09T08:06:25.269Z,10.60
2019-05-09T08:08:52.980Z,10.50
2019-05-09T08:11:20.721Z,10.50
2019-05-09T08:13:48.813Z,10.50
2019-05-09T08:16:18.629Z,10.50
2019-05-09T08:18:48.341Z,10.50
2019-05-09T08:21:18.087Z,10.50
2019-05-09T08:23:45.830Z,10.50
2019-05-09T08:26:18.676Z,10.60
2019-05-09T08:28:48.042Z,10.70
2019-05-09T08:31:17.697Z,10.70
2019-05-09T08:33:45.420Z,10.70
2019-05-09T08:36:14.244Z,10.70
2019-05-09T08:38:42.227Z,10.70
2019-05-09T08:41:11.950Z,10.70
2019-05-09T08:43:40.260Z,10.70
2019-05-09T08:46:09.400Z,10.70
2019-05-09T08:48:37.950Z,10.70
2019-05-09T08:51:19.097Z,10.80
2019-05-09T08:53:48.211Z,10.90
2019-05-09T08:56:17.880Z,11.00
2019-05-09T08:58:48.270Z,11.20
2019-05-09T09:01:27.584Z,11.30
2019-05-09T09:03:45.440Z,11.40
2019-05-09T09:06:14.096Z,11.50
2019-05-09T09:08:41.926Z,11.50
2019-05-09T09:11:09.624Z,11.50
2019-05-09T09:13:37.931Z,11.40
2019-05-09T09:16:18.141Z,11.50
2019-05-09T09:18:35.513Z,11.50
2019-05-09T09:21:03.583Z,11.50
2019-05-09T09:23:43.342Z,11.50
2019-05-09T09:26:01.126Z,11.60
2019-05-09T09:28:29.892Z,11.60
2019-05-09T09:30:59.079Z,11.80
2019-05-09T09:33:27.996Z,11.80
2019-05-09T09:35:57.925Z,11.80
2019-05-09T09:38:25.583Z,11.90
2019-05-09T09:40:53.663Z,12.00
2019-05-09T09:43:21.325Z,12.10
2019-05-09T09:46:05.752Z,12.10
2019-05-09T09:48:18.521Z,12.20
2019-05-09T09:50:50.912Z,12.10
2019-05-09T09:53:17.808Z,12.00
2019-05-09T09:55:47.677Z,12.00
2019-05-09T09:58:15.382Z,11.90
2019-05-09T10:00:53.424Z,11.80
2019-05-09T10:03:23.303Z,11.70
2019-05-09T10:05:50.998Z,11.60
2019-05-09T10:08:18.878Z,11.50
2019-05-09T10:10:48.320Z,11.40
2019-05-09T10:13:18.498Z,11.50
2019-05-09T10:16:18.077Z,11.60
2019-05-09T10:19:01.279Z,11.60
2019-05-09T10:21:32.803Z,11.80
2019-05-09T10:24:01.430Z,12.00
2019-05-09T10:26:29.214Z,12.20
2019-05-09T10:28:56.911Z,12.40
2019-05-09T10:31:28.356Z,12.50
2019-05-09T10:33:58.008Z,12.60
2019-05-09T10:36:27.890Z,12.50
2019-05-09T10:38:58.516Z,12.50
2019-05-09T10:41:25.808Z,12.40
2019-05-09T10:44:09.827Z,12.50
2019-05-09T10:46:56.852Z,12.40
2019-05-09T10:49:18.796Z,12.40
2019-05-09T10:51:48.537Z,12.40
2019-05-09T10:54:18.596Z,12.40
2019-05-09T10:56:48.427Z,12.30
2019-05-09T10:59:17.662Z,12.30
2019-05-09T11:01:45.110Z,12.20
2019-05-09T11:04:12.960Z,12.20
2019-05-09T11:06:40.720Z,12.20
2019-05-09T11:09:08.840Z,12.10
2019-05-09T11:11:37.268Z,12.20
2019-05-09T11:14:05.455Z,12.20
2019-05-09T11:16:45.393Z,12.10
2019-05-09T11:19:03.075Z,12.20
2019-05-09T11:21:30.791Z,12.10
2019-05-09T11:23:58.790Z,12.00
2019-05-09T11:26:28.481Z,12.00
2019-05-09T11:28:59.001Z,11.90
2019-05-09T11:31:29.093Z,11.90
2019-05-09T11:33:57.897Z,11.80
2019-05-09T11:36:25.920Z,11.80
2019-05-09T11:38:53.777Z,11.90
2019-05-09T11:41:21.490Z,11.90
2019-05-09T11:43:49.297Z,11.90
2019-05-09T11:46:18.057Z,12.00
2019-05-09T11:48:47.392Z,12.10
2019-05-09T11:51:17.846Z,12.20
2019-05-09T11:53:44.698Z,12.20
2019-05-09T11:56:13.566Z,12.30
2019-05-09T11:58:41.411Z,12.30
2019-05-09T12:01:09.395Z,12.30
2019-05-09T12:03:38.894Z,12.30
2019-05-09T12:06:07.979Z,12.20
2019-05-09T12:08:38.566Z,12.30
2019-05-09T12:11:08.185Z,12.30
2019-05-09T12:13:37.822Z,12.30
2019-05-09T12:16:05.038Z,12.30
2019-05-09T12:18:32.718Z,12.40
2019-05-09T12:21:00.386Z,12.40
2019-05-09T12:23:29.121Z,12.40
2019-05-09T12:25:58.262Z,12.40
2019-05-09T12:28:26.285Z,12.50
2019-05-09T12:30:54.066Z,12.50
2019-05-09T12:33:21.678Z,12.50
2019-05-09T12:35:49.322Z,12.50
2019-05-09T12:38:18.074Z,12.40
2019-05-09T12:40:48.156Z,12.40
2019-05-09T12:43:15.768Z,12.30
2019-05-09T12:45:43.530Z,12.30
2019-05-09T12:48:15.240Z,12.20
2019-05-09T12:50:40.900Z,12.10
2019-05-09T12:53:09.307Z,12.10
2019-05-09T12:55:38.470Z,12.00
2019-05-09T12:58:12.478Z,12.00
2019-05-09T13:00:40.167Z,11.90
2019-05-09T13:03:08.667Z,11.90
2019-05-09T13:05:38.869Z,11.80
2019-05-09T13:08:10.233Z,11.80
2019-05-09T13:10:37.870Z,11.80
2019-05-09T13:13:08.343Z,11.70
2019-05-09T13:15:41.994Z,11.70
2019-05-09T13:18:21.377Z,11.70
2019-05-09T13:20:39.476Z,11.70
2019-05-09T13:23:08.873Z,11.70
2019-05-09T13:25:38.105Z,11.70
2019-05-09T13:28:08.160Z,11.70
2019-05-09T13:30:38.025Z,11.60
2019-05-09T13:33:09.875Z,11.70
2019-05-09T13:35:34.878Z,11.70
2019-05-09T13:38:02.660Z,11.70
2019-05-09T13:40:30.400Z,11.80
2019-05-09T13:42:58.608Z,11.80
2019-05-09T13:45:28.599Z,11.90
2019-05-09T13:47:57.937Z,11.90
2019-05-09T13:50:28.136Z,11.90
2019-05-09T13:52:55.462Z,11.90
2019-05-09T13:55:23.358Z,12.00
2019-05-09T13:57:51.113Z,12.10
2019-05-09T14:00:19.695Z,12.20
2019-05-09T14:02:48.932Z,12.30
2019-05-09T14:05:19.074Z,12.30
2019-05-09T14:07:49.219Z,12.40
2019-05-09T14:10:17.811Z,12.40
2019-05-09T14:13:02.053Z,12.40
2019-05-09T14:15:18.489Z,12.40
2019-05-09T14:17:52.459Z,12.30
2019-05-09T14:20:17.805Z,12.20
2019-05-09T14:22:45.502Z,12.10
2019-05-09T14:25:13.312Z,12.00
2019-05-09T14:27:41.950Z,12.00
2019-05-09T14:30:09.807Z,11.90
2019-05-09T14:32:40.122Z,12.00
2019-05-09T14:35:08.539Z,12.00
2019-05-09T14:37:38.904Z,12.10
2019-05-09T14:40:10.057Z,12.10
2019-05-09T14:42:36.185Z,12.10
2019-05-09T14:45:04.152Z,12.10
2019-05-09T14:47:31.877Z,12.10
2019-05-09T14:49:59.729Z,12.20
2019-05-09T14:52:28.305Z,12.20
2019-05-09T14:54:58.143Z,12.20
2019-05-09T14:57:28.448Z,12.30
2019-05-09T14:59:55.538Z,12.30
2019-05-09T15:02:23.288Z,12.30
2019-05-09T15:04:51.024Z,12.30
2019-05-09T15:07:19.578Z,12.30
2019-05-09T15:09:47.577Z,12.30
2019-05-09T15:12:15.359Z,12.40
2019-05-09T15:14:43.032Z,12.50
2019-05-09T15:17:10.723Z,12.60
2019-05-09T15:19:38.788Z,12.70
2019-05-09T15:22:08.214Z,12.80
2019-05-09T15:24:38.654Z,12.70
2019-05-09T15:27:05.884Z,13.00
2019-05-09T15:29:33.502Z,13.30
2019-05-09T15:33:03.840Z,13.40
2019-05-09T15:35:34.613Z,13.50
2019-05-09T15:38:09.413Z,13.40
2019-05-09T15:40:38.693Z,13.30
2019-05-09T15:43:08.237Z,13.40
2019-05-09T15:45:44.224Z,13.40
2019-05-09T15:48:12.199Z,13.50
2019-05-09T15:50:41.063Z,13.60
2019-05-09T15:53:09.067Z,13.40
2019-05-09T15:55:38.374Z,13.30
2019-05-09T15:58:06.111Z,13.20
2019-05-09T16:00:33.910Z,13.10
2019-05-09T16:03:01.682Z,13.20
2019-05-09T16:05:31.757Z,13.40
2019-05-09T16:08:01.793Z,13.60
2019-05-09T16:10:29.542Z,13.50
2019-05-09T16:12:57.523Z,13.60
2019-05-09T16:15:28.116Z,13.60
2019-05-09T16:17:55.198Z,13.60
2019-05-09T16:20:36.284Z,13.60
2019-05-09T16:22:56.547Z,13.60
2019-05-09T16:25:22.793Z,13.60
2019-05-09T16:27:50.472Z,13.60
2019-05-09T16:30:19.379Z,13.60
2019-05-09T16:32:48.053Z,13.60
2019-05-09T16:35:18.116Z,13.50
2019-05-09T16:38:01.263Z,13.50
2019-05-09T16:40:15.384Z,13.50
2019-05-09T16:42:43.116Z,13.50
2019-05-09T16:45:11.826Z,13.50
2019-05-09T16:47:39.503Z,13.50
2019-05-09T16:50:11.916Z,13.50
2019-05-09T16:52:40.321Z,13.50
2019-05-09T16:55:14.693Z,13.50
2019-05-09T16:57:43.722Z,13.60
2019-05-09T17:00:14.230Z,13.60
2019-05-09T17:02:42.042Z,13.60
2019-05-09T17:05:09.702Z,13.60
2019-05-09T17:07:38.601Z,13.60
2019-05-09T17:10:08.311Z,13.60
2019-05-09T17:12:37.293Z,13.50
2019-05-09T17:15:05.152Z,13.60
2019-05-09T17:17:33.080Z,13.60
2019-05-09T17:20:00.797Z,13.50
2019-05-09T17:22:47.448Z,13.50
2019-05-09T17:25:15.578Z,13.50
2019-05-09T17:27:43.372Z,13.50
2019-05-09T17:30:12.113Z,13.40
2019-05-09T17:32:40.305Z,13.40
2019-05-09T17:35:08.137Z,13.40
2019-05-09T17:37:38.026Z,13.40
2019-05-09T17:40:07.825Z,13.30
2019-05-09T17:42:38.165Z,13.30
2019-05-09T17:45:08.280Z,13.20
2019-05-09T17:47:37.602Z,13.10
2019-05-09T17:50:07.156Z,13.00
2019-05-09T17:52:36.446Z,13.00
2019-05-09T17:55:04.327Z,12.90
2019-05-09T17:57:32.174Z,12.90
2019-05-09T17:59:59.924Z,12.80
2019-05-09T18:02:28.276Z,12.80
2019-05-09T18:04:58.132Z,12.80
2019-05-09T18:07:30.264Z,12.80
2019-05-09T18:09:58.150Z,12.80
2019-05-09T18:12:27.724Z,12.70
2019-05-09T18:14:56.624Z,12.70
2019-05-09T18:17:24.302Z,12.70
2019-05-09T18:19:52.021Z,12.70
2019-05-09T18:22:19.745Z,12.70
2019-05-09T18:24:48.237Z,12.70
2019-05-09T18:27:18.104Z,12.60
2019-05-09T18:29:47.427Z,12.60
2019-05-09T18:32:47.677Z,12.60
2019-05-09T18:35:19.119Z,12.60
2019-05-09T18:37:48.109Z,12.60
2019-05-09T18:40:18.012Z,12.50
2019-05-09T18:42:47.637Z,12.50
2019-05-09T18:45:17.509Z,12.50
2019-05-09T18:47:47.636Z,12.50
2019-05-09T18:50:16.361Z,12.50
2019-05-09T18:52:44.101Z,12.40
2019-05-09T18:55:12.360Z,12.40
2019-05-09T18:57:40.136Z,12.50
2019-05-09T19:00:10.546Z,12.50
2019-05-09T19:02:39.101Z,12.40
2019-05-09T19:05:07.635Z,12.40
2019-05-09T19:07:35.355Z,12.50
2019-05-09T19:10:03.639Z,12.50
2019-05-09T19:12:31.508Z,12.60
2019-05-09T19:14:59.632Z,12.50
2019-05-09T19:17:56.109Z,12.50
2019-05-09T19:20:47.643Z,12.40
2019-05-09T19:23:15.332Z,12.40
2019-05-09T19:25:43.106Z,12.30
2019-05-09T19:28:10.897Z,12.30
2019-05-09T19:30:38.921Z,12.30
2019-05-09T19:33:08.354Z,12.30
2019-05-09T19:35:36.317Z,12.30
2019-05-09T19:38:04.223Z,12.30
2019-05-09T19:40:32.054Z,12.30
2019-05-09T19:42:59.961Z,12.30
2019-05-09T19:45:28.053Z,12.30
2019-05-09T19:47:56.015Z,12.30
2019-05-09T19:50:23.994Z,12.30
2019-05-09T19:52:51.729Z,12.30
2019-05-09T19:55:19.505Z,12.30
2019-05-09T19:57:47.565Z,12.30
2019-05-09T20:00:16.086Z,12.30
2019-05-09T20:02:44.034Z,12.30
2019-05-09T20:05:12.490Z,12.30
2019-05-09T20:07:40.525Z,12.30
2019-05-09T20:10:30.889Z,12.30
2019-05-09T20:13:18.299Z,12.30
2019-05-09T20:15:48.804Z,12.30
2019-05-09T20:18:16.595Z,12.30
2019-05-09T20:20:44.557Z,12.30
2019-05-09T20:23:12.441Z,12.20
2019-05-09T20:25:40.538Z,12.30
2019-05-09T20:28:08.371Z,12.20
2019-05-09T20:30:36.186Z,12.20
2019-05-09T20:33:04.474Z,12.20
2019-05-09T20:35:34.773Z,12.30
2019-05-09T20:38:02.660Z,12.20
2019-05-09T20:40:30.473Z,12.20
2019-05-09T20:42:58.306Z,12.20
2019-05-09T20:45:25.976Z,12.20
2019-05-09T20:47:54.029Z,12.10
2019-05-09T20:50:22.098Z,12.00
2019-05-09T20:52:49.920Z,12.00
2019-05-09T20:55:20.222Z,12.00
2019-05-09T20:57:48.100Z,11.90
2019-05-09T21:00:18.052Z,11.90
2019-05-09T21:02:45.921Z,11.90
2019-05-09T21:05:13.855Z,11.90
2019-05-09T21:07:41.536Z,11.90
2019-05-09T21:10:09.758Z,12.00
2019-05-09T21:12:37.531Z,12.00
2019-05-09T21:15:05.748Z,12.00
2019-05-09T21:17:33.707Z,12.00
2019-05-09T21:20:01.382Z,11.90
2019-05-09T21:22:29.106Z,11.90
2019-05-09T21:24:56.982Z,11.90
2019-05-09T21:27:24.841Z,11.90
2019-05-09T21:29:52.711Z,11.80
2019-05-09T21:32:20.475Z,11.80
2019-05-09T21:34:48.166Z,11.70
2019-05-09T21:37:15.890Z,11.70
2019-05-09T21:39:43.592Z,11.60
2019-05-09T21:42:11.329Z,11.60
2019-05-09T21:44:39.188Z,11.60
2019-05-09T21:47:08.439Z,11.50
2019-05-09T21:49:36.551Z,11.40
2019-05-09T21:52:04.390Z,11.40
2019-05-09T21:54:32.222Z,11.40
2019-05-09T21:56:59.953Z,11.40
2019-05-09T21:59:27.663Z,11.50
2019-05-09T22:01:55.674Z,11.60
2019-05-09T22:04:23.530Z,11.60
2019-05-09T22:06:51.339Z,11.60
2019-05-09T22:09:19.308Z,11.60
2019-05-09T22:11:47.095Z,11.60
2019-05-09T22:14:14.819Z,11.60
2019-05-09T22:16:43.115Z,11.60
2019-05-09T22:19:10.832Z,11.60
2019-05-09T22:21:38.432Z,11.60
2019-05-09T22:24:06.204Z,11.60
2019-05-09T22:26:33.952Z,11.60
2019-05-09T22:29:01.796Z,11.60
2019-05-09T22:31:30.073Z,11.60
2019-05-09T22:33:57.652Z,11.60
2019-05-09T22:36:25.311Z,11.60
2019-05-09T22:38:53.099Z,11.60
2019-05-09T22:41:20.793Z,11.60
2019-05-09T22:43:48.455Z,11.60
2019-05-09T22:46:16.237Z,11.60
2019-05-09T22:48:45.418Z,11.60
2019-05-09T22:51:13.534Z,11.60
2019-05-09T22:53:41.213Z,11.60
2019-05-09T22:56:08.975Z,11.60
2019-05-09T22:58:36.596Z,11.60
2019-05-09T23:01:04.256Z,11.60
2019-05-09T23:03:32.068Z,11.60
2019-05-09T23:05:59.805Z,11.60
2019-05-09T23:08:27.474Z,11.60
2019-05-09T23:10:55.307Z,11.60
2019-05-09T23:13:22.979Z,11.60
2019-05-09T23:15:50.666Z,11.60
2019-05-09T23:18:18.534Z,11.60
2019-05-09T23:20:49.000Z,11.60
2019-05-09T23:23:36.061Z,11.60
2019-05-09T23:26:03.940Z,11.60
2019-05-09T23:28:31.601Z,11.60
2019-05-09T23:31:01.613Z,11.60
2019-05-09T23:33:32.558Z,11.60
2019-05-09T23:36:00.208Z,11.60
2019-05-09T23:38:27.978Z,11.60
2019-05-09T23:40:55.583Z,11.60
2019-05-09T23:43:23.216Z,11.60
2019-05-09T23:45:50.893Z,11.60
2019-05-09T23:48:18.559Z,11.60
2019-05-09T23:50:46.501Z,11.60
2019-05-09T23:53:20.159Z,11.60
2019-05-09T23:56:06.325Z,11.60
2019-05-09T23:58:52.520Z,11.50
